Time;durP1;ratioP1;P1;durP2;ratioP2;P2;SDS_P1;SDS_P2;PMS_P1;PMS_P2;Temp;Humidity;BMP_temperature;BMP_pressure;BME280_temperature;BME280_humidity;BME280_pressure;Samples;Min_cycle;Max_cycle;Signal;HPM_P1;HPM_P2
2023/06/09 00:01:53;;;;;;;15.70;4.70;;;;;;;;;;4986410;28;99842;-76
2023/06/09 00:04:23;;;;;;;15.63;5.03;;;;;;;;;;4986458;28;99947;-76
2023/06/09 00:06:51;;;;;;;16.42;4.97;;;;;;;;;;4985926;28;101116;-76
2023/06/09 00:09:19;;;;;;;15.27;5.13;;;;;;;;;;4985912;28;99867;-76
2023/06/09 00:11:45;;;;;;;18.60;4.95;;;;;;;;;;4987038;28;99654;-76
2023/06/09 00:14:12;;;;;;;20.40;5.70;;;;;;;;;;4977936;28;99515;-76
2023/06/09 00:16:38;;;;;;;17.15;4.90;;;;;;;;;;4987260;28;98869;-75
2023/06/09 00:19:08;;;;;;;16.40;4.72;;;;;;;;;;4987310;28;99188;-78
2023/06/09 00:21:37;;;;;;;20.50;5.18;;;;;;;;;;4991081;28;99260;-76
2023/06/09 00:24:04;;;;;;;11.35;4.53;;;;;;;;;;4988494;28;99896;-77
2023/06/09 00:26:30;;;;;;;15.27;5.47;;;;;;;;;;4987856;28;100109;-75
2023/06/09 00:28:57;;;;;;;17.52;5.63;;;;;;;;;;4980595;28;101010;-74
2023/06/09 00:31:24;;;;;;;23.10;5.43;;;;;;;;;;4984415;28;101643;-76
2023/06/09 00:33:51;;;;;;;10.95;4.70;;;;;;;;;;4985150;28;99819;-76
2023/06/09 00:36:17;;;;;;;17.02;4.53;;;;;;;;;;4984921;28;100955;-76
2023/06/09 00:38:44;;;;;;;12.10;4.78;;;;;;;;;;4986915;28;98973;-76
2023/06/09 00:41:12;;;;;;;15.43;5.25;;;;;;;;;;4984948;28;101875;-75
2023/06/09 00:43:38;;;;;;;19.17;5.22;;;;;;;;;;4989247;28;98725;-75
2023/06/09 00:46:08;;;;;;;13.32;4.68;;;;;;;;;;4985576;28;99906;-75
2023/06/09 00:48:35;;;;;;;11.70;5.03;;;;;;;;;;4987316;28;98966;-76
2023/06/09 00:51:02;;;;;;;19.13;5.38;;;;;;;;;;4984733;28;100119;-76
2023/06/09 00:53:28;;;;;;;16.10;5.45;;;;;;;;;;4986816;28;99072;-77
2023/06/09 00:55:55;;;;;;;20.45;5.40;;;;;;;;;;4985925;28;100287;-75
2023/06/09 00:58:22;;;;;;;19.85;5.78;;;;;;;;;;4985343;28;99577;-76
2023/06/09 01:00:50;;;;;;;16.33;4.90;;;;;;;;;;4986329;28;99090;-77
2023/06/09 01:03:18;;;;;;;17.52;4.95;;;;;;;;;;4989205;28;98946;-76
2023/06/09 01:05:48;;;;;;;14.63;5.18;;;;;;;;;;4986207;28;99806;-76
2023/06/09 01:08:22;;;;;;;12.18;4.82;;;;;;;;;;4985212;28;99247;-76
2023/06/09 01:11:00;;;;;;;17.85;4.78;;;;;;;;;;4985791;28;99069;-76
2023/06/09 01:13:37;;;;;;;9.82;4.25;;;;;;;;;;4986888;28;99388;-75
2023/06/09 01:16:08;;;;;;;17.42;5.82;;;;;;;;;;4984629;28;101161;-76
2023/06/09 01:18:36;;;;;;;11.50;5.20;;;;;;;;;;4984600;28;102087;-77
2023/06/09 01:21:12;;;;;;;14.57;5.15;;;;;;;;;;4986026;28;100792;-76
2023/06/09 01:23:44;;;;;;;18.88;4.85;;;;;;;;;;4978080;28;99047;-77
2023/06/09 01:26:12;;;;;;;18.42;4.82;;;;;;;;;;4986114;28;98928;-75
2023/06/09 01:28:39;;;;;;;13.55;4.30;;;;;;;;;;4986309;28;99979;-76
2023/06/09 01:31:08;;;;;;;16.02;4.97;;;;;;;;;;4985988;28;98943;-76
2023/06/09 01:33:36;;;;;;;13.63;4.80;;;;;;;;;;4980869;28;100158;-77
2023/06/09 01:36:03;;;;;;;18.75;5.10;;;;;;;;;;4988077;28;99303;-75
2023/06/09 01:38:30;;;;;;;14.95;4.75;;;;;;;;;;4989466;28;99268;-76
2023/06/09 01:40:56;;;;;;;18.00;5.32;;;;;;;;;;4989043;28;100567;-75
2023/06/09 01:43:23;;;;;;;15.90;6.22;;;;;;;;;;4989044;28;98778;-76
2023/06/09 01:45:49;;;;;;;18.33;5.40;;;;;;;;;;4988528;28;99177;-76
2023/06/09 01:48:26;;;;;;;9.10;4.30;;;;;;;;;;4990949;28;99451;-77
2023/06/09 01:51:05;;;;;;;15.40;5.32;;;;;;;;;;4989029;28;99090;-75
2023/06/09 01:53:36;;;;;;;12.60;4.85;;;;;;;;;;4987640;28;99678;-75
2023/06/09 01:56:14;;;;;;;12.60;4.57;;;;;;;;;;4989159;28;98783;-75
2023/06/09 01:58:42;;;;;;;11.15;4.45;;;;;;;;;;4984378;28;100096;-74
2023/06/09 02:01:10;;;;;;;12.88;4.75;;;;;;;;;;4995516;28;102108;-75
2023/06/09 02:03:38;;;;;;;17.23;5.60;;;;;;;;;;5004111;28;101439;-75
2023/06/09 02:06:05;;;;;;;11.98;5.65;;;;;;;;;;4987803;28;99300;-77
2023/06/09 02:08:32;;;;;;;10.93;5.03;;;;;;;;;;4986355;28;101998;-75
2023/06/09 02:10:58;;;;;;;15.00;5.30;;;;;;;;;;4990085;28;101515;-75
2023/06/09 02:13:25;;;;;;;9.02;3.92;;;;;;;;;;4988711;28;100110;-76
2023/06/09 02:15:51;;;;;;;14.10;4.95;;;;;;;;;;4988678;28;98901;-77
2023/06/09 02:18:21;;;;;;;10.02;4.70;;;;;;;;;;4988968;28;99163;-75
2023/06/09 02:20:48;;;;;;;16.38;4.82;;;;;;;;;;4984561;28;102751;-75
2023/06/09 02:23:15;;;;;;;14.20;5.25;;;;;;;;;;4982494;28;99180;-75
2023/06/09 02:25:42;;;;;;;15.25;4.78;;;;;;;;;;4988588;28;98908;-77
2023/06/09 02:28:08;;;;;;;20.40;6.10;;;;;;;;;;4991890;28;101230;-76
2023/06/09 02:30:35;;;;;;;11.48;4.93;;;;;;;;;;4994345;28;101649;-76
2023/06/09 02:33:01;;;;;;;11.23;4.32;;;;;;;;;;4997193;28;99584;-76
2023/06/09 02:35:29;;;;;;;16.50;5.28;;;;;;;;;;4988108;28;99342;-76
2023/06/09 02:37:57;;;;;;;11.23;5.22;;;;;;;;;;4979272;28;101785;-76
2023/06/09 02:40:26;;;;;;;12.32;4.68;;;;;;;;;;4986952;28;101543;-76
2023/06/09 02:42:53;;;;;;;16.58;5.82;;;;;;;;;;4987219;28;99108;-76
2023/06/09 02:45:19;;;;;;;8.48;5.10;;;;;;;;;;4988102;28;100088;-76
2023/06/09 02:47:46;;;;;;;16.90;5.78;;;;;;;;;;4988138;28;99092;-75
2023/06/09 02:50:14;;;;;;;10.15;5.00;;;;;;;;;;4987389;28;99093;-76
2023/06/09 02:52:41;;;;;;;14.85;5.20;;;;;;;;;;4990882;28;98985;-77
2023/06/09 02:55:11;;;;;;;12.15;5.30;;;;;;;;;;4986623;28;100065;-75
2023/06/09 02:57:42;;;;;;;14.27;5.65;;;;;;;;;;4986390;28;101672;-75
2023/06/09 03:00:09;;;;;;;15.32;5.25;;;;;;;;;;4987542;28;99912;-76
2023/06/09 03:02:38;;;;;;;21.75;6.07;;;;;;;;;;4986503;28;98975;-75
2023/06/09 03:05:05;;;;;;;11.63;5.80;;;;;;;;;;4982165;28;100341;-77
2023/06/09 03:07:32;;;;;;;14.77;5.70;;;;;;;;;;4983946;28;99268;-77
2023/06/09 03:09:59;;;;;;;10.98;5.43;;;;;;;;;;4985423;28;99211;-77
2023/06/09 03:12:28;;;;;;;10.40;5.50;;;;;;;;;;4988724;28;100722;-77
2023/06/09 03:14:54;;;;;;;12.60;6.28;;;;;;;;;;4993268;28;100974;-76
2023/06/09 03:17:21;;;;;;;15.18;5.70;;;;;;;;;;4988711;28;101505;-76
2023/06/09 03:19:49;;;;;;;17.90;6.38;;;;;;;;;;4986289;28;101849;-76
2023/06/09 03:22:15;;;;;;;11.95;5.15;;;;;;;;;;4987333;28;99958;-77
2023/06/09 03:24:44;;;;;;;16.45;7.03;;;;;;;;;;4985087;28;101585;-76
2023/06/09 03:27:11;;;;;;;16.10;5.63;;;;;;;;;;4978286;28;101002;-76
2023/06/09 03:29:38;;;;;;;22.63;6.13;;;;;;;;;;4987037;28;99103;-77
2023/06/09 03:32:04;;;;;;;9.43;5.55;;;;;;;;;;4984803;28;98906;-76
2023/06/09 03:34:31;;;;;;;14.68;5.20;;;;;;;;;;4986232;28;101437;-76
2023/06/09 03:37:01;;;;;;;11.60;5.60;;;;;;;;;;5004077;28;100046;-75
2023/06/09 03:39:27;;;;;;;15.02;6.15;;;;;;;;;;4985319;28;101336;-76
2023/06/09 03:41:56;;;;;;;18.40;5.95;;;;;;;;;;4986847;28;100120;-76
2023/06/09 03:44:24;;;;;;;16.65;5.95;;;;;;;;;;4986309;28;100692;-76
2023/06/09 03:46:52;;;;;;;18.90;6.65;;;;;;;;;;4985280;28;101044;-76
2023/06/09 03:49:19;;;;;;;17.73;5.70;;;;;;;;;;4985261;28;100900;-77
2023/06/09 03:51:47;;;;;;;12.45;5.75;;;;;;;;;;4986309;28;102291;-76
2023/06/09 03:54:14;;;;;;;14.63;5.78;;;;;;;;;;4983678;28;100903;-75
2023/06/09 03:56:40;;;;;;;13.70;5.55;;;;;;;;;;4985454;28;100311;-75
2023/06/09 03:59:07;;;;;;;10.45;5.25;;;;;;;;;;4987423;28;99265;-75
2023/06/09 04:01:34;;;;;;;15.32;7.40;;;;;;;;;;4984856;28;101789;-75
2023/06/09 04:04:00;;;;;;;10.85;5.53;;;;;;;;;;4985378;28;101501;-75
2023/06/09 04:06:28;;;;;;;20.80;5.93;;;;;;;;;;4985902;28;101324;-75
2023/06/09 04:08:55;;;;;;;14.98;6.57;;;;;;;;;;4986207;28;100943;-77
2023/06/09 04:11:22;;;;;;;15.77;5.88;;;;;;;;;;4989853;28;99163;-76
2023/06/09 04:13:48;;;;;;;14.70;6.30;;;;;;;;;;4988296;28;99855;-76
2023/06/09 04:16:16;;;;;;;15.02;6.63;;;;;;;;;;4985421;28;100304;-75
2023/06/09 04:18:43;;;;;;;15.13;6.45;;;;;;;;;;4985532;28;101851;-77
2023/06/09 04:21:11;;;;;;;17.60;6.40;;;;;;;;;;4989364;28;99763;-76
2023/06/09 04:23:38;;;;;;;15.30;6.57;;;;;;;;;;4984982;28;101043;-76
2023/06/09 04:26:08;;;;;;;17.30;6.18;;;;;;;;;;4986361;28;99537;-75
2023/06/09 04:28:38;;;;;;;12.95;6.18;;;;;;;;;;4985311;28;101525;-77
2023/06/09 04:31:06;;;;;;;13.95;5.90;;;;;;;;;;4984879;28;100903;-76
2023/06/09 04:33:36;;;;;;;19.75;5.78;;;;;;;;;;4986316;28;99171;-76
2023/06/09 04:36:03;;;;;;;9.93;5.32;;;;;;;;;;4983910;28;101519;-77
2023/06/09 04:38:33;;;;;;;10.57;6.07;;;;;;;;;;4984173;28;100674;-76
2023/06/09 04:41:03;;;;;;;16.13;6.65;;;;;;;;;;4985175;28;101984;-76
2023/06/09 04:43:33;;;;;;;14.35;5.60;;;;;;;;;;4987350;28;99243;-76
2023/06/09 04:46:05;;;;;;;14.70;6.57;;;;;;;;;;4985178;28;101085;-75
2023/06/09 04:48:34;;;;;;;9.20;6.00;;;;;;;;;;4984223;28;101417;-77
2023/06/09 04:51:01;;;;;;;14.82;6.07;;;;;;;;;;4985000;28;101001;-77
2023/06/09 04:53:34;;;;;;;12.57;5.80;;;;;;;;;;4984435;28;99572;-77
2023/06/09 04:56:02;;;;;;;13.23;5.45;;;;;;;;;;4984861;28;99327;-77
2023/06/09 04:58:31;;;;;;;18.17;6.00;;;;;;;;;;4986515;28;98618;-76
2023/06/09 05:00:59;;;;;;;12.65;5.97;;;;;;;;;;4984518;28;101784;-76
2023/06/09 05:03:25;;;;;;;17.10;6.40;;;;;;;;;;4988160;28;99168;-77
2023/06/09 05:05:52;;;;;;;13.32;5.30;;;;;;;;;;4985534;28;101876;-77
2023/06/09 05:08:21;;;;;;;16.15;6.28;;;;;;;;;;4986785;28;99650;-76
2023/06/09 05:10:48;;;;;;;14.60;5.65;;;;;;;;;;4987523;28;101063;-76
2023/06/09 05:13:15;;;;;;;18.25;6.35;;;;;;;;;;4984319;28;99349;-76
2023/06/09 05:15:42;;;;;;;15.48;6.78;;;;;;;;;;4985920;28;99071;-76
2023/06/09 05:18:10;;;;;;;19.52;6.03;;;;;;;;;;4984015;28;101303;-77
2023/06/09 05:20:37;;;;;;;17.88;7.13;;;;;;;;;;4986580;28;99459;-77
2023/06/09 05:23:05;;;;;;;16.77;5.82;;;;;;;;;;4984863;28;101295;-77
2023/06/09 05:25:31;;;;;;;13.45;5.65;;;;;;;;;;4988063;28;99076;-77
2023/06/09 05:27:58;;;;;;;19.05;6.07;;;;;;;;;;4983848;28;102355;-78
2023/06/09 05:30:26;;;;;;;17.38;6.55;;;;;;;;;;4984434;28;99836;-77
2023/06/09 05:32:52;;;;;;;16.35;8.13;;;;;;;;;;4983479;28;101084;-76
2023/06/09 05:35:19;;;;;;;12.95;5.40;;;;;;;;;;4983962;28;101091;-76
2023/06/09 05:37:49;;;;;;;12.88;5.53;;;;;;;;;;4984983;28;100031;-76
2023/06/09 05:40:17;;;;;;;12.25;5.32;;;;;;;;;;4984416;28;101195;-76
2023/06/09 05:42:45;;;;;;;13.13;5.72;;;;;;;;;;4985420;28;99180;-76
2023/06/09 05:45:11;;;;;;;11.95;5.63;;;;;;;;;;4985436;28;99155;-76
2023/06/09 05:47:38;;;;;;;15.38;5.47;;;;;;;;;;4988654;28;100511;-77
2023/06/09 05:50:05;;;;;;;13.10;6.10;;;;;;;;;;4985801;28;99925;-76
2023/06/09 05:52:32;;;;;;;11.65;5.55;;;;;;;;;;4983934;28;101115;-76
2023/06/09 05:54:58;;;;;;;12.30;5.75;;;;;;;;;;4985714;28;100266;-75
2023/06/09 05:57:25;;;;;;;14.00;6.30;;;;;;;;;;4986032;28;99669;-76
2023/06/09 05:59:52;;;;;;;14.40;6.82;;;;;;;;;;4982952;28;100683;-76
2023/06/09 06:02:18;;;;;;;17.98;6.35;;;;;;;;;;4985582;28;99194;-75
2023/06/09 06:04:45;;;;;;;16.83;6.43;;;;;;;;;;4982735;28;99465;-76
2023/06/09 06:07:14;;;;;;;12.25;5.18;;;;;;;;;;4979416;28;99647;-76
2023/06/09 06:09:40;;;;;;;18.00;7.15;;;;;;;;;;4988551;28;99891;-76
2023/06/09 06:12:07;;;;;;;17.45;6.43;;;;;;;;;;4986151;28;99624;-76
2023/06/09 06:14:33;;;;;;;12.85;6.53;;;;;;;;;;4984976;28;100079;-75
2023/06/09 06:17:00;;;;;;;13.88;5.28;;;;;;;;;;4983161;28;100166;-77
2023/06/09 06:19:26;;;;;;;12.57;5.38;;;;;;;;;;4985802;28;99355;-77
2023/06/09 06:21:53;;;;;;;18.05;6.43;;;;;;;;;;4987908;28;100086;-77
2023/06/09 06:24:19;;;;;;;14.85;6.10;;;;;;;;;;4988563;28;99998;-77
2023/06/09 06:26:46;;;;;;;11.82;5.50;;;;;;;;;;4988290;28;98640;-77
2023/06/09 06:29:13;;;;;;;14.30;6.72;;;;;;;;;;4986066;28;99931;-76
2023/06/09 06:31:39;;;;;;;12.82;6.45;;;;;;;;;;4991693;28;99591;-77
2023/06/09 06:34:06;;;;;;;12.25;6.55;;;;;;;;;;4988634;28;99232;-73
2023/06/09 06:36:33;;;;;;;9.98;5.72;;;;;;;;;;4986350;28;99284;-78
2023/06/09 06:38:59;;;;;;;10.95;6.10;;;;;;;;;;4987010;28;100688;-77
2023/06/09 06:41:26;;;;;;;12.93;5.65;;;;;;;;;;4984924;28;100594;-75
2023/06/09 06:43:53;;;;;;;12.93;5.68;;;;;;;;;;4994881;28;99917;-75
2023/06/09 06:46:19;;;;;;;20.25;6.00;;;;;;;;;;4995164;28;99798;-76
2023/06/09 06:48:46;;;;;;;19.58;6.15;;;;;;;;;;4991661;28;99963;-76
2023/06/09 06:51:12;;;;;;;15.32;6.35;;;;;;;;;;4996824;28;100202;-76
2023/06/09 06:53:39;;;;;;;12.98;6.28;;;;;;;;;;4992506;28;99085;-77
2023/06/09 06:56:05;;;;;;;13.30;5.80;;;;;;;;;;4998002;28;100549;-76
2023/06/09 06:58:33;;;;;;;13.57;5.90;;;;;;;;;;5003561;28;98059;-76
2023/06/09 07:01:00;;;;;;;13.98;6.35;;;;;;;;;;4987801;28;100220;-77
2023/06/09 07:03:27;;;;;;;10.02;5.78;;;;;;;;;;4985428;28;99768;-76
2023/06/09 07:05:53;;;;;;;14.07;5.82;;;;;;;;;;4979943;28;100204;-75
2023/06/09 07:08:20;;;;;;;11.38;6.03;;;;;;;;;;4984748;28;100772;-77
2023/06/09 07:10:47;;;;;;;11.73;5.20;;;;;;;;;;4987053;28;99905;-73
2023/06/09 07:13:15;;;;;;;17.45;6.40;;;;;;;;;;4989626;28;99204;-77
2023/06/09 07:15:42;;;;;;;12.90;6.43;;;;;;;;;;4983357;28;99090;-77
2023/06/09 07:18:09;;;;;;;17.13;6.18;;;;;;;;;;4985794;28;100330;-76
2023/06/09 07:20:36;;;;;;;11.00;5.82;;;;;;;;;;4980716;28;99936;-77
2023/06/09 07:23:02;;;;;;;12.73;5.93;;;;;;;;;;4978347;28;100163;-77
2023/06/09 07:25:31;;;;;;;13.32;6.60;;;;;;;;;;4986025;28;101397;-78
2023/06/09 07:27:57;;;;;;;13.63;5.65;;;;;;;;;;4979509;28;100051;-76
2023/06/09 07:30:24;;;;;;;15.73;6.57;;;;;;;;;;4986026;28;99849;-76
2023/06/09 07:32:50;;;;;;;14.52;6.50;;;;;;;;;;4988735;28;100053;-76
2023/06/09 07:35:19;;;;;;;15.98;5.97;;;;;;;;;;4980083;28;99853;-78
2023/06/09 07:37:46;;;;;;;12.95;6.05;;;;;;;;;;4982450;28;100147;-77
2023/06/09 07:40:12;;;;;;;19.67;5.97;;;;;;;;;;4990493;28;99086;-78
2023/06/09 07:42:47;;;;;;;11.35;6.40;;;;;;;;;;4987900;28;98901;-76
2023/06/09 07:45:13;;;;;;;12.35;6.05;;;;;;;;;;4986288;28;99412;-78
2023/06/09 07:47:40;;;;;;;15.00;5.93;;;;;;;;;;4982600;28;99095;-77
2023/06/09 07:50:07;;;;;;;8.85;5.63;;;;;;;;;;4984610;28;99174;-77
2023/06/09 07:52:36;;;;;;;11.27;6.00;;;;;;;;;;4979868;28;100074;-76
2023/06/09 07:55:03;;;;;;;12.82;6.30;;;;;;;;;;4985781;28;100621;-78
2023/06/09 07:57:30;;;;;;;10.07;5.10;;;;;;;;;;4991127;28;100675;-77
2023/06/09 07:59:56;;;;;;;10.05;5.72;;;;;;;;;;4986483;28;99133;-77
2023/06/09 08:02:23;;;;;;;9.43;6.05;;;;;;;;;;4978650;28;100344;-77
2023/06/09 08:04:50;;;;;;;11.95;5.82;;;;;;;;;;4975964;28;100975;-77
2023/06/09 08:07:16;;;;;;;10.85;5.50;;;;;;;;;;4983566;28;98948;-77
2023/06/09 08:09:43;;;;;;;11.02;5.55;;;;;;;;;;4986790;28;99955;-77
2023/06/09 08:12:11;;;;;;;10.55;5.32;;;;;;;;;;4984185;28;98759;-77
2023/06/09 08:14:37;;;;;;;10.80;6.03;;;;;;;;;;4978082;28;98960;-77
2023/06/09 08:17:04;;;;;;;25.55;5.75;;;;;;;;;;4986459;28;99010;-77
2023/06/09 08:19:31;;;;;;;12.73;5.70;;;;;;;;;;4980408;28;100824;-77
2023/06/09 08:21:58;;;;;;;12.70;6.50;;;;;;;;;;4980008;28;100853;-76
2023/06/09 08:24:25;;;;;;;12.50;5.57;;;;;;;;;;4978084;28;100213;-77
2023/06/09 08:26:52;;;;;;;11.63;5.93;;;;;;;;;;4976508;28;100288;-77
2023/06/09 08:29:18;;;;;;;10.48;5.65;;;;;;;;;;4973334;28;100393;-78
2023/06/09 08:31:45;;;;;;;14.38;6.15;;;;;;;;;;4977446;28;100348;-77
2023/06/09 08:34:11;;;;;;;14.38;6.35;;;;;;;;;;4977338;28;99887;-77
2023/06/09 08:36:38;;;;;;;15.95;6.40;;;;;;;;;;4975890;28;99913;-77
2023/06/09 08:39:05;;;;;;;12.55;5.55;;;;;;;;;;4971496;28;100214;-77
2023/06/09 08:41:37;;;;;;;13.43;5.93;;;;;;;;;;4976936;28;99111;-76
2023/06/09 08:44:04;;;;;;;9.23;5.50;;;;;;;;;;4984881;28;101070;-76
2023/06/09 08:46:35;;;;;;;9.20;5.88;;;;;;;;;;4976459;28;99870;-76
2023/06/09 08:49:02;;;;;;;10.18;5.70;;;;;;;;;;4972964;28;99081;-76
2023/06/09 08:51:28;;;;;;;9.25;5.38;;;;;;;;;;4976398;28;100273;-77
2023/06/09 08:53:56;;;;;;;11.05;5.50;;;;;;;;;;4976107;28;100361;-76
2023/06/09 08:56:22;;;;;;;10.10;5.03;;;;;;;;;;4975907;28;98942;-76
2023/06/09 08:58:50;;;;;;;7.63;5.28;;;;;;;;;;4972333;28;101692;-77
2023/06/09 09:01:20;;;;;;;10.77;5.82;;;;;;;;;;4975196;28;99881;-75
2023/06/09 09:03:47;;;;;;;14.93;6.22;;;;;;;;;;4979458;28;99164;-76
2023/06/09 09:06:14;;;;;;;7.68;5.45;;;;;;;;;;4978526;28;100404;-76
2023/06/09 09:08:41;;;;;;;10.30;5.38;;;;;;;;;;4973934;28;99922;-75
2023/06/09 09:11:07;;;;;;;13.65;5.65;;;;;;;;;;4973947;28;100361;-77
2023/06/09 09:13:34;;;;;;;11.80;6.20;;;;;;;;;;4977293;28;99881;-76
2023/06/09 09:16:01;;;;;;;10.63;5.22;;;;;;;;;;4979943;28;99995;-76
2023/06/09 09:18:31;;;;;;;7.95;5.30;;;;;;;;;;4976700;28;100554;-75
2023/06/09 09:20:58;;;;;;;9.07;5.13;;;;;;;;;;4978942;28;99380;-77
2023/06/09 09:23:31;;;;;;;11.20;5.65;;;;;;;;;;4980269;28;99739;-76
2023/06/09 09:26:03;;;;;;;8.18;4.90;;;;;;;;;;4985592;28;98958;-76
2023/06/09 09:28:39;;;;;;;12.90;5.50;;;;;;;;;;4984626;28;101370;-76
2023/06/09 09:31:06;;;;;;;7.28;4.57;;;;;;;;;;4976964;28;100254;-76
2023/06/09 09:33:35;;;;;;;20.77;5.20;;;;;;;;;;4977625;28;99387;-76
2023/06/09 09:36:02;;;;;;;6.88;4.60;;;;;;;;;;4980048;28;101432;-77
2023/06/09 09:38:29;;;;;;;10.27;5.10;;;;;;;;;;4983699;28;100447;-76
2023/06/09 09:40:57;;;;;;;7.40;5.20;;;;;;;;;;4976218;28;98909;-76
2023/06/09 09:43:27;;;;;;;8.25;5.47;;;;;;;;;;4978326;28;100244;-75
2023/06/09 09:45:54;;;;;;;7.88;4.95;;;;;;;;;;4983946;28;100434;-76
2023/06/09 09:48:23;;;;;;;15.60;4.93;;;;;;;;;;4983958;28;99198;-76
2023/06/09 09:50:51;;;;;;;11.45;5.60;;;;;;;;;;4985898;28;98694;-76
2023/06/09 09:53:21;;;;;;;11.70;4.82;;;;;;;;;;4980542;28;99485;-76
2023/06/09 09:55:49;;;;;;;6.32;4.75;;;;;;;;;;4980740;28;100276;-75
2023/06/09 09:58:17;;;;;;;6.28;4.78;;;;;;;;;;4976470;28;101967;-75
2023/06/09 10:00:44;;;;;;;5.82;4.82;;;;;;;;;;4984196;28;98886;-76
2023/06/09 10:03:14;;;;;;;6.95;4.50;;;;;;;;;;4983426;28;99122;-76
2023/06/09 10:05:47;;;;;;;8.10;4.63;;;;;;;;;;4978015;28;100137;-76
2023/06/09 10:08:21;;;;;;;6.90;5.20;;;;;;;;;;4985961;28;100020;-75
2023/06/09 10:10:49;;;;;;;18.05;5.20;;;;;;;;;;4985029;28;100390;-75
2023/06/09 10:13:16;;;;;;;8.00;4.93;;;;;;;;;;4980640;28;100177;-76
2023/06/09 10:15:43;;;;;;;7.38;4.85;;;;;;;;;;4989806;28;99450;-76
2023/06/09 10:18:11;;;;;;;8.18;5.15;;;;;;;;;;4989277;28;99457;-75
2023/06/09 10:20:38;;;;;;;8.68;4.68;;;;;;;;;;4982935;28;100091;-75
2023/06/09 10:23:05;;;;;;;13.18;4.80;;;;;;;;;;4981843;28;100879;-76
2023/06/09 10:25:31;;;;;;;8.38;5.40;;;;;;;;;;4980594;28;100235;-77
2023/06/09 10:27:58;;;;;;;7.63;4.43;;;;;;;;;;4976699;28;102145;-76
2023/06/09 10:30:24;;;;;;;8.07;5.32;;;;;;;;;;4984851;28;98913;-76
2023/06/09 10:33:04;;;;;;;6.10;4.93;;;;;;;;;;4985980;28;100148;-76
2023/06/09 10:35:32;;;;;;;14.50;5.18;;;;;;;;;;4980950;28;100398;-75
2023/06/09 10:37:59;;;;;;;5.13;4.60;;;;;;;;;;4985690;28;100689;-77
2023/06/09 10:40:29;;;;;;;11.05;4.60;;;;;;;;;;4987129;28;99207;-79
2023/06/09 10:43:02;;;;;;;6.30;4.45;;;;;;;;;;4994351;28;98733;-76
2023/06/09 10:45:47;;;;;;;7.97;4.40;;;;;;;;;;4977474;28;99678;-77
2023/06/09 10:48:13;;;;;;;10.98;5.25;;;;;;;;;;4970024;28;99326;-77
2023/06/09 10:50:39;;;;;;;8.55;5.18;;;;;;;;;;4971422;28;100062;-77
2023/06/09 10:53:13;;;;;;;7.07;4.07;;;;;;;;;;4974935;28;100284;-78
2023/06/09 10:55:44;;;;;;;8.13;5.53;;;;;;;;;;4970601;28;99170;-77
2023/06/09 10:58:30;;;;;;;5.97;4.50;;;;;;;;;;4970532;28;100506;-77
2023/06/09 11:01:07;;;;;;;7.57;4.68;;;;;;;;;;4982179;28;100483;-78
2023/06/09 11:03:35;;;;;;;5.57;4.20;;;;;;;;;;4990679;28;98453;-77
2023/06/09 11:06:02;;;;;;;5.97;4.18;;;;;;;;;;4988878;28;99233;-76
2023/06/09 11:08:54;;;;;;;5.43;4.25;;;;;;;;;;4987855;28;99208;-79
2023/06/09 11:11:41;;;;;;;5.97;4.50;;;;;;;;;;4978258;28;100336;-78
2023/06/09 11:14:08;;;;;;;17.65;4.47;;;;;;;;;;4979542;28;100387;-79
2023/06/09 11:16:55;;;;;;;5.40;4.65;;;;;;;;;;4976685;28;98456;-76
2023/06/09 11:19:21;;;;;;;7.53;4.60;;;;;;;;;;4972493;28;100165;-77
2023/06/09 11:22:02;;;;;;;8.30;4.50;;;;;;;;;;4987900;28;100685;-76
2023/06/09 11:24:46;;;;;;;4.82;4.20;;;;;;;;;;4985310;28;99081;-79
2023/06/09 11:27:21;;;;;;;12.15;4.70;;;;;;;;;;4988580;28;99384;-77
2023/06/09 11:30:06;;;;;;;10.63;4.32;;;;;;;;;;4984272;28;99568;-77
2023/06/09 11:32:44;;;;;;;4.88;3.90;;;;;;;;;;4990428;28;101401;-79
2023/06/09 11:35:39;;;;;;;4.93;3.80;;;;;;;;;;4990740;28;100243;-78
2023/06/09 11:38:20;;;;;;;6.70;3.65;;;;;;;;;;5013725;28;100643;-80
2023/06/09 11:40:51;;;;;;;5.97;4.05;;;;;;;;;;4976644;28;100544;-76
2023/06/09 11:43:20;;;;;;;9.55;3.40;;;;;;;;;;4987224;28;99010;-77
2023/06/09 11:46:05;;;;;;;6.82;3.58;;;;;;;;;;4981727;28;98800;-78
2023/06/09 11:48:31;;;;;;;3.70;3.40;;;;;;;;;;4977546;28;100437;-76
2023/06/09 11:50:58;;;;;;;3.90;3.60;;;;;;;;;;4991419;28;100051;-77
2023/06/09 11:53:25;;;;;;;5.75;4.25;;;;;;;;;;4989701;28;98875;-79
2023/06/09 11:56:00;;;;;;;9.57;4.20;;;;;;;;;;4989770;28;100336;-77
2023/06/09 11:58:26;;;;;;;4.07;3.78;;;;;;;;;;4988831;28;100037;-76
2023/06/09 12:00:56;;;;;;;7.15;3.65;;;;;;;;;;4986845;28;99492;-80
2023/06/09 12:03:23;;;;;;;6.75;4.55;;;;;;;;;;4990829;28;99088;-78
2023/06/09 12:05:54;;;;;;;4.57;3.95;;;;;;;;;;4989512;28;99327;-76
2023/06/09 12:08:24;;;;;;;6.82;4.60;;;;;;;;;;4988697;28;99568;-77
2023/06/09 12:10:50;;;;;;;6.70;3.97;;;;;;;;;;4986864;28;100122;-76
2023/06/09 12:13:18;;;;;;;5.78;3.92;;;;;;;;;;4968594;28;99789;-76
2023/06/09 12:15:54;;;;;;;4.60;3.97;;;;;;;;;;4971112;28;100607;-77
2023/06/09 12:18:23;;;;;;;7.15;4.07;;;;;;;;;;4988280;28;101555;-76
2023/06/09 12:20:51;;;;;;;4.57;3.92;;;;;;;;;;4976507;28;100716;-77
2023/06/09 12:23:27;;;;;;;6.95;4.28;;;;;;;;;;4974075;28;98525;-75
2023/06/09 12:26:05;;;;;;;6.53;4.35;;;;;;;;;;4980690;28;100977;-74
2023/06/09 12:28:38;;;;;;;7.10;4.32;;;;;;;;;;4972722;28;100245;-79
2023/06/09 12:31:09;;;;;;;6.35;4.10;;;;;;;;;;4978854;28;101169;-73
2023/06/09 12:33:36;;;;;;;4.63;3.73;;;;;;;;;;4983793;28;100564;-77
2023/06/09 12:36:10;;;;;;;8.98;4.03;;;;;;;;;;4972102;28;100257;-78
2023/06/09 12:38:40;;;;;;;7.82;3.75;;;;;;;;;;4971830;28;99187;-75
2023/06/09 12:41:08;;;;;;;4.07;3.75;;;;;;;;;;4983055;28;101077;-77
2023/06/09 12:43:56;;;;;;;10.45;4.43;;;;;;;;;;4984554;28;99429;-75
2023/06/09 12:46:27;;;;;;;7.70;4.00;;;;;;;;;;4990935;28;100323;-76
2023/06/09 12:49:07;;;;;;;7.88;4.03;;;;;;;;;;4990065;28;99312;-76
2023/06/09 12:51:36;;;;;;;8.90;4.35;;;;;;;;;;4986967;28;100066;-76
2023/06/09 12:54:09;;;;;;;5.05;3.97;;;;;;;;;;4976723;28;100033;-76
2023/06/09 12:56:36;;;;;;;6.75;4.10;;;;;;;;;;4976309;28;101202;-75
2023/06/09 12:59:03;;;;;;;8.05;4.53;;;;;;;;;;4985743;28;100667;-76
2023/06/09 13:01:31;;;;;;;8.50;4.20;;;;;;;;;;4986084;28;98901;-78
2023/06/09 13:04:07;;;;;;;7.78;3.85;;;;;;;;;;4980233;28;99600;-76
2023/06/09 13:06:34;;;;;;;8.88;4.03;;;;;;;;;;4991441;28;98632;-78
2023/06/09 13:09:01;;;;;;;9.85;4.05;;;;;;;;;;4988390;28;99677;-77
2023/06/09 13:11:29;;;;;;;5.72;4.07;;;;;;;;;;5000663;28;100328;-78
2023/06/09 13:13:56;;;;;;;5.03;3.63;;;;;;;;;;5005522;28;98266;-77
2023/06/09 13:16:22;;;;;;;9.05;4.20;;;;;;;;;;5001300;28;99122;-78
2023/06/09 13:18:49;;;;;;;4.10;3.70;;;;;;;;;;4993014;28;98814;-79
2023/06/09 13:21:15;;;;;;;3.97;3.55;;;;;;;;;;4993309;28;99238;-78
2023/06/09 13:24:02;;;;;;;3.95;3.65;;;;;;;;;;4987123;28;100287;-78
2023/06/09 13:26:28;;;;;;;7.50;3.80;;;;;;;;;;5001404;28;100171;-78
2023/06/09 13:28:55;;;;;;;4.55;4.13;;;;;;;;;;4997568;28;99439;-79
2023/06/09 13:31:21;;;;;;;8.15;4.47;;;;;;;;;;5005791;28;100520;-78
2023/06/09 13:33:48;;;;;;;7.57;4.38;;;;;;;;;;4995179;28;99080;-78
2023/06/09 13:36:14;;;;;;;8.07;4.35;;;;;;;;;;4998420;28;100446;-77
2023/06/09 13:38:41;;;;;;;5.43;3.90;;;;;;;;;;5001902;28;99950;-77
2023/06/09 13:41:07;;;;;;;4.45;4.05;;;;;;;;;;5002700;28;98455;-77
2023/06/09 13:43:34;;;;;;;7.95;4.30;;;;;;;;;;4995819;28;99626;-78
2023/06/09 13:46:01;;;;;;;6.65;4.05;;;;;;;;;;4995214;28;100026;-78
2023/06/09 13:48:27;;;;;;;9.27;4.20;;;;;;;;;;4998308;28;99705;-78
2023/06/09 13:50:54;;;;;;;4.43;4.03;;;;;;;;;;4997722;28;99386;-79
2023/06/09 13:53:22;;;;;;;4.43;4.07;;;;;;;;;;4990374;28;99080;-78
2023/06/09 13:55:48;;;;;;;8.25;4.00;;;;;;;;;;4991536;28;100639;-78
2023/06/09 13:58:15;;;;;;;5.85;3.60;;;;;;;;;;4996202;28;99728;-78
2023/06/09 14:00:42;;;;;;;5.97;3.83;;;;;;;;;;5003548;28;100007;-79
2023/06/09 14:03:08;;;;;;;4.15;3.70;;;;;;;;;;5006781;28;99508;-77
2023/06/09 14:05:35;;;;;;;7.53;3.72;;;;;;;;;;5010878;28;98844;-78
2023/06/09 14:08:02;;;;;;;6.85;3.42;;;;;;;;;;4999775;28;98525;-78
2023/06/09 14:10:28;;;;;;;6.03;4.10;;;;;;;;;;4995869;28;99927;-78
2023/06/09 14:12:55;;;;;;;6.38;4.15;;;;;;;;;;5007230;28;100008;-79
2023/06/09 14:15:24;;;;;;;4.72;3.70;;;;;;;;;;4997068;28;98528;-77
2023/06/09 14:17:57;;;;;;;6.35;3.80;;;;;;;;;;5003331;28;100161;-78
2023/06/09 14:20:26;;;;;;;4.38;3.75;;;;;;;;;;5002812;28;99906;-79
2023/06/09 14:22:52;;;;;;;4.15;3.85;;;;;;;;;;5002688;28;99320;-80
2023/06/09 14:25:21;;;;;;;7.35;3.72;;;;;;;;;;4998375;28;99983;-78
2023/06/09 14:27:48;;;;;;;3.58;3.28;;;;;;;;;;5005369;28;99100;-78
2023/06/09 14:30:17;;;;;;;5.65;3.40;;;;;;;;;;5001035;28;99484;-78
2023/06/09 14:32:47;;;;;;;9.15;4.10;;;;;;;;;;5002587;28;99155;-79
2023/06/09 14:35:19;;;;;;;5.95;3.92;;;;;;;;;;4993977;28;99292;-78
2023/06/09 14:37:50;;;;;;;5.30;3.65;;;;;;;;;;4995686;28;99787;-78